sensor_id;sensor_type;location;lat;lon;timestamp;P1;durP1;ratioP1;P2;durP2;ratioP2
57337;SDS011;43173;50.980;18.204;2022-09-09T00:00:57;15.90;;;8.60;;
57337;SDS011;43173;50.980;18.204;2022-09-09T00:03:32;15.80;;;8.00;;
57337;SDS011;43173;50.980;18.204;2022-09-09T00:06:23;13.00;;;8.40;;
57337;SDS011;43173;50.980;18.204;2022-09-09T00:11:46;16.70;;;8.00;;
57337;SDS011;43173;50.980;18.204;2022-09-09T00:17:12;32.00;;;7.60;;
57337;SDS011;43173;50.980;18.204;2022-09-09T00:19:48;26.10;;;7.40;;
57337;SDS011;43173;50.980;18.204;2022-09-09T00:22:24;31.20;;;8.10;;
57337;SDS011;43173;50.980;18.204;2022-09-09T00:24:52;19.60;;;7.60;;
57337;SDS011;43173;50.980;18.204;2022-09-09T00:27:30;11.40;;;7.40;;
57337;SDS011;43173;50.980;18.204;2022-09-09T00:32:45;14.80;;;9.00;;
57337;SDS011;43173;50.980;18.204;2022-09-09T00:35:16;12.80;;;8.80;;
57337;SDS011;43173;50.980;18.204;2022-09-09T00:37:44;12.10;;;8.50;;
57337;SDS011;43173;50.980;18.204;2022-09-09T00:54:32;26.00;;;8.50;;
57337;SDS011;43173;50.980;18.204;2022-09-09T00:59:58;24.40;;;7.70;;
57337;SDS011;43173;50.980;18.204;2022-09-09T01:05:20;40.90;;;8.40;;
57337;SDS011;43173;50.980;18.204;2022-09-09T01:07:52;42.60;;;9.00;;
57337;SDS011;43173;50.980;18.204;2022-09-09T01:10:43;22.30;;;8.80;;
57337;SDS011;43173;50.980;18.204;2022-09-09T01:13:11;36.30;;;9.40;;
57337;SDS011;43173;50.980;18.204;2022-09-09T01:15:41;35.10;;;9.80;;
57337;SDS011;43173;50.980;18.204;2022-09-09T01:18:12;31.00;;;9.80;;
57337;SDS011;43173;50.980;18.204;2022-09-09T01:23:35;25.90;;;10.50;;
57337;SDS011;43173;50.980;18.204;2022-09-09T01:26:47;24.50;;;10.80;;
57337;SDS011;43173;50.980;18.204;2022-09-09T01:28:55;25.70;;;11.80;;
57337;SDS011;43173;50.980;18.204;2022-09-09T01:31:23;27.00;;;11.70;;
57337;SDS011;43173;50.980;18.204;2022-09-09T01:33:54;39.00;;;12.00;;
57337;SDS011;43173;50.980;18.204;2022-09-09T01:39:08;33.20;;;13.40;;
57337;SDS011;43173;50.980;18.204;2022-09-09T01:41:35;25.80;;;12.60;;
57337;SDS011;43173;50.980;18.204;2022-09-09T01:44:00;28.40;;;13.50;;
57337;SDS011;43173;50.980;18.204;2022-09-09T01:46:27;34.70;;;14.30;;
57337;SDS011;43173;50.980;18.204;2022-09-09T01:48:53;37.70;;;14.90;;
57337;SDS011;43173;50.980;18.204;2022-09-09T01:51:20;47.80;;;15.60;;
57337;SDS011;43173;50.980;18.204;2022-09-09T01:53:46;38.00;;;15.80;;
57337;SDS011;43173;50.980;18.204;2022-09-09T02:01:25;32.80;;;13.70;;
57337;SDS011;43173;50.980;18.204;2022-09-09T02:03:54;37.80;;;15.20;;
57337;SDS011;43173;50.980;18.204;2022-09-09T02:06:40;32.90;;;14.80;;
57337;SDS011;43173;50.980;18.204;2022-09-09T02:09:06;35.50;;;16.50;;
57337;SDS011;43173;50.980;18.204;2022-09-09T02:11:33;29.50;;;14.70;;
57337;SDS011;43173;50.980;18.204;2022-09-09T02:14:05;32.80;;;16.30;;
57337;SDS011;43173;50.980;18.204;2022-09-09T02:16:37;29.50;;;15.00;;
57337;SDS011;43173;50.980;18.204;2022-09-09T02:19:27;27.20;;;14.90;;
57337;SDS011;43173;50.980;18.204;2022-09-09T02:21:56;27.00;;;14.70;;
57337;SDS011;43173;50.980;18.204;2022-09-09T02:24:24;31.30;;;15.80;;
57337;SDS011;43173;50.980;18.204;2022-09-09T02:26:51;27.60;;;14.80;;
57337;SDS011;43173;50.980;18.204;2022-09-09T02:29:19;30.30;;;16.40;;
57337;SDS011;43173;50.980;18.204;2022-09-09T02:31:51;33.80;;;17.10;;
57337;SDS011;43173;50.980;18.204;2022-09-09T02:34:18;29.60;;;15.90;;
57337;SDS011;43173;50.980;18.204;2022-09-09T02:36:46;31.90;;;16.70;;
57337;SDS011;43173;50.980;18.204;2022-09-09T02:39:12;31.10;;;17.10;;
57337;SDS011;43173;50.980;18.204;2022-09-09T02:41:39;27.40;;;15.80;;
57337;SDS011;43173;50.980;18.204;2022-09-09T02:44:10;25.90;;;15.50;;
57337;SDS011;43173;50.980;18.204;2022-09-09T02:52:41;26.20;;;15.20;;
57337;SDS011;43173;50.980;18.204;2022-09-09T02:55:16;24.40;;;15.20;;
57337;SDS011;43173;50.980;18.204;2022-09-09T02:57:46;23.60;;;16.00;;
57337;SDS011;43173;50.980;18.204;2022-09-09T03:00:13;22.40;;;14.30;;
57337;SDS011;43173;50.980;18.204;2022-09-09T03:02:40;23.20;;;15.50;;
57337;SDS011;43173;50.980;18.204;2022-09-09T03:05:06;22.40;;;15.00;;
57337;SDS011;43173;50.980;18.204;2022-09-09T03:07:32;20.90;;;14.40;;
57337;SDS011;43173;50.980;18.204;2022-09-09T03:09:58;23.90;;;16.10;;
57337;SDS011;43173;50.980;18.204;2022-09-09T03:12:24;26.80;;;16.10;;
57337;SDS011;43173;50.980;18.204;2022-09-09T03:14:50;23.80;;;16.10;;
57337;SDS011;43173;50.980;18.204;2022-09-09T03:17:15;26.20;;;18.30;;
57337;SDS011;43173;50.980;18.204;2022-09-09T03:19:42;27.70;;;18.50;;
57337;SDS011;43173;50.980;18.204;2022-09-09T03:22:09;25.30;;;17.80;;
57337;SDS011;43173;50.980;18.204;2022-09-09T03:24:35;28.50;;;19.00;;
57337;SDS011;43173;50.980;18.204;2022-09-09T03:27:01;27.80;;;18.80;;
57337;SDS011;43173;50.980;18.204;2022-09-09T03:29:27;25.70;;;17.50;;
57337;SDS011;43173;50.980;18.204;2022-09-09T03:31:53;23.10;;;16.60;;
57337;SDS011;43173;50.980;18.204;2022-09-09T03:34:19;24.50;;;17.30;;
57337;SDS011;43173;50.980;18.204;2022-09-09T03:36:44;25.20;;;16.50;;
57337;SDS011;43173;50.980;18.204;2022-09-09T03:39:11;27.00;;;17.50;;
57337;SDS011;43173;50.980;18.204;2022-09-09T03:41:36;24.70;;;17.10;;
57337;SDS011;43173;50.980;18.204;2022-09-09T03:44:02;29.50;;;18.50;;
57337;SDS011;43173;50.980;18.204;2022-09-09T03:46:28;25.60;;;17.40;;
57337;SDS011;43173;50.980;18.204;2022-09-09T03:48:54;24.90;;;18.10;;
57337;SDS011;43173;50.980;18.204;2022-09-09T03:51:19;25.10;;;17.00;;
57337;SDS011;43173;50.980;18.204;2022-09-09T03:53:46;30.00;;;16.20;;
57337;SDS011;43173;50.980;18.204;2022-09-09T03:56:11;25.00;;;16.50;;
57337;SDS011;43173;50.980;18.204;2022-09-09T03:58:37;25.40;;;16.60;;
57337;SDS011;43173;50.980;18.204;2022-09-09T04:01:05;21.60;;;16.80;;
57337;SDS011;43173;50.980;18.204;2022-09-09T04:03:33;24.50;;;16.20;;
57337;SDS011;43173;50.980;18.204;2022-09-09T04:06:02;21.50;;;16.30;;
57337;SDS011;43173;50.980;18.204;2022-09-09T04:08:29;24.60;;;16.90;;
57337;SDS011;43173;50.980;18.204;2022-09-09T04:11:01;27.60;;;18.80;;
57337;SDS011;43173;50.980;18.204;2022-09-09T04:13:30;24.80;;;19.60;;
57337;SDS011;43173;50.980;18.204;2022-09-09T04:15:57;26.70;;;20.30;;
57337;SDS011;43173;50.980;18.204;2022-09-09T04:18:24;27.30;;;19.60;;
57337;SDS011;43173;50.980;18.204;2022-09-09T04:20:51;22.20;;;17.40;;
57337;SDS011;43173;50.980;18.204;2022-09-09T04:23:18;22.40;;;17.00;;
57337;SDS011;43173;50.980;18.204;2022-09-09T04:25:45;21.70;;;17.00;;
57337;SDS011;43173;50.980;18.204;2022-09-09T04:28:12;21.40;;;16.70;;
57337;SDS011;43173;50.980;18.204;2022-09-09T04:30:39;21.50;;;17.60;;
57337;SDS011;43173;50.980;18.204;2022-09-09T04:33:06;24.30;;;18.00;;
57337;SDS011;43173;50.980;18.204;2022-09-09T04:35:33;21.70;;;17.30;;
57337;SDS011;43173;50.980;18.204;2022-09-09T04:37:58;21.90;;;16.40;;
57337;SDS011;43173;50.980;18.204;2022-09-09T04:40:24;20.90;;;16.80;;
57337;SDS011;43173;50.980;18.204;2022-09-09T04:42:50;19.50;;;16.00;;
57337;SDS011;43173;50.980;18.204;2022-09-09T04:45:16;25.70;;;17.90;;
57337;SDS011;43173;50.980;18.204;2022-09-09T04:47:42;21.90;;;16.20;;
57337;SDS011;43173;50.980;18.204;2022-09-09T04:50:08;23.70;;;18.00;;
57337;SDS011;43173;50.980;18.204;2022-09-09T04:52:34;23.10;;;18.30;;
57337;SDS011;43173;50.980;18.204;2022-09-09T04:55:01;20.60;;;17.30;;
57337;SDS011;43173;50.980;18.204;2022-09-09T04:57:28;22.40;;;17.20;;
57337;SDS011;43173;50.980;18.204;2022-09-09T04:59:54;23.00;;;17.60;;
57337;SDS011;43173;50.980;18.204;2022-09-09T05:02:20;21.30;;;17.80;;
57337;SDS011;43173;50.980;18.204;2022-09-09T05:04:46;20.50;;;17.20;;
57337;SDS011;43173;50.980;18.204;2022-09-09T05:07:11;20.60;;;16.20;;
57337;SDS011;43173;50.980;18.204;2022-09-09T05:09:36;20.90;;;16.60;;
57337;SDS011;43173;50.980;18.204;2022-09-09T05:12:02;20.60;;;16.90;;
57337;SDS011;43173;50.980;18.204;2022-09-09T05:14:28;22.20;;;17.70;;
57337;SDS011;43173;50.980;18.204;2022-09-09T05:16:55;22.30;;;18.00;;
57337;SDS011;43173;50.980;18.204;2022-09-09T05:19:21;22.20;;;17.50;;
57337;SDS011;43173;50.980;18.204;2022-09-09T05:21:47;23.60;;;18.80;;
57337;SDS011;43173;50.980;18.204;2022-09-09T05:24:13;24.50;;;18.40;;
57337;SDS011;43173;50.980;18.204;2022-09-09T05:26:39;24.20;;;19.00;;
57337;SDS011;43173;50.980;18.204;2022-09-09T05:29:05;25.10;;;18.10;;
57337;SDS011;43173;50.980;18.204;2022-09-09T05:31:31;23.50;;;19.60;;
57337;SDS011;43173;50.980;18.204;2022-09-09T05:33:58;26.90;;;19.00;;
57337;SDS011;43173;50.980;18.204;2022-09-09T05:36:25;24.70;;;18.80;;
57337;SDS011;43173;50.980;18.204;2022-09-09T05:38:51;22.30;;;17.70;;
57337;SDS011;43173;50.980;18.204;2022-09-09T05:41:19;22.00;;;16.30;;
57337;SDS011;43173;50.980;18.204;2022-09-09T05:43:45;25.60;;;19.50;;
57337;SDS011;43173;50.980;18.204;2022-09-09T05:46:13;25.10;;;19.20;;
57337;SDS011;43173;50.980;18.204;2022-09-09T05:48:41;26.30;;;18.30;;
57337;SDS011;43173;50.980;18.204;2022-09-09T05:51:09;20.20;;;16.80;;
57337;SDS011;43173;50.980;18.204;2022-09-09T05:53:38;21.50;;;17.70;;
57337;SDS011;43173;50.980;18.204;2022-09-09T05:56:08;25.30;;;18.50;;
57337;SDS011;43173;50.980;18.204;2022-09-09T05:58:39;22.40;;;17.30;;
57337;SDS011;43173;50.980;18.204;2022-09-09T06:01:19;20.70;;;18.10;;
57337;SDS011;43173;50.980;18.204;2022-09-09T06:03:47;18.20;;;14.70;;
57337;SDS011;43173;50.980;18.204;2022-09-09T06:06:15;19.10;;;16.30;;
57337;SDS011;43173;50.980;18.204;2022-09-09T06:08:51;16.10;;;12.60;;
57337;SDS011;43173;50.980;18.204;2022-09-09T06:11:25;21.40;;;16.10;;
57337;SDS011;43173;50.980;18.204;2022-09-09T06:13:56;20.00;;;16.30;;
57337;SDS011;43173;50.980;18.204;2022-09-09T06:16:23;18.90;;;15.20;;
57337;SDS011;43173;50.980;18.204;2022-09-09T06:18:52;16.40;;;14.70;;
57337;SDS011;43173;50.980;18.204;2022-09-09T06:21:20;16.40;;;14.40;;
57337;SDS011;43173;50.980;18.204;2022-09-09T06:23:47;18.00;;;14.60;;
57337;SDS011;43173;50.980;18.204;2022-09-09T06:26:14;17.40;;;14.10;;
57337;SDS011;43173;50.980;18.204;2022-09-09T06:28:42;16.50;;;14.40;;
57337;SDS011;43173;50.980;18.204;2022-09-09T06:31:08;15.80;;;13.30;;
57337;SDS011;43173;50.980;18.204;2022-09-09T06:33:37;14.70;;;13.20;;
57337;SDS011;43173;50.980;18.204;2022-09-09T06:36:10;11.50;;;10.30;;
57337;SDS011;43173;50.980;18.204;2022-09-09T06:38:41;15.50;;;12.60;;
57337;SDS011;43173;50.980;18.204;2022-09-09T06:41:08;13.90;;;12.60;;
57337;SDS011;43173;50.980;18.204;2022-09-09T06:43:35;14.30;;;12.80;;
57337;SDS011;43173;50.980;18.204;2022-09-09T06:46:02;15.30;;;13.70;;
57337;SDS011;43173;50.980;18.204;2022-09-09T06:48:30;16.40;;;12.90;;
57337;SDS011;43173;50.980;18.204;2022-09-09T06:53:42;12.00;;;10.70;;
57337;SDS011;43173;50.980;18.204;2022-09-09T06:58:38;14.60;;;11.70;;
57337;SDS011;43173;50.980;18.204;2022-09-09T07:01:12;13.70;;;10.60;;
57337;SDS011;43173;50.980;18.204;2022-09-09T07:03:39;11.10;;;9.90;;
57337;SDS011;43173;50.980;18.204;2022-09-09T07:06:06;12.50;;;11.20;;
57337;SDS011;43173;50.980;18.204;2022-09-09T07:08:33;13.70;;;12.10;;
57337;SDS011;43173;50.980;18.204;2022-09-09T07:11:06;13.40;;;11.30;;
57337;SDS011;43173;50.980;18.204;2022-09-09T07:13:33;13.80;;;12.40;;
57337;SDS011;43173;50.980;18.204;2022-09-09T07:16:03;10.90;;;9.80;;
57337;SDS011;43173;50.980;18.204;2022-09-09T07:18:33;10.40;;;9.40;;
57337;SDS011;43173;50.980;18.204;2022-09-09T07:21:00;10.90;;;9.80;;
57337;SDS011;43173;50.980;18.204;2022-09-09T07:23:27;13.50;;;11.40;;
57337;SDS011;43173;50.980;18.204;2022-09-09T07:25:53;11.00;;;9.70;;
57337;SDS011;43173;50.980;18.204;2022-09-09T07:28:20;15.20;;;11.40;;
57337;SDS011;43173;50.980;18.204;2022-09-09T07:33:32;9.80;;;8.90;;
57337;SDS011;43173;50.980;18.204;2022-09-09T07:36:03;10.80;;;9.70;;
57337;SDS011;43173;50.980;18.204;2022-09-09T07:38:41;11.20;;;9.40;;
57337;SDS011;43173;50.980;18.204;2022-09-09T07:41:09;9.70;;;8.80;;
57337;SDS011;43173;50.980;18.204;2022-09-09T07:43:38;9.00;;;8.20;;
57337;SDS011;43173;50.980;18.204;2022-09-09T07:46:05;8.60;;;7.50;;
57337;SDS011;43173;50.980;18.204;2022-09-09T07:48:31;7.00;;;6.40;;
57337;SDS011;43173;50.980;18.204;2022-09-09T07:51:31;8.40;;;7.50;;
57337;SDS011;43173;50.980;18.204;2022-09-09T07:53:52;7.70;;;7.10;;
57337;SDS011;43173;50.980;18.204;2022-09-09T07:56:19;7.00;;;6.30;;
57337;SDS011;43173;50.980;18.204;2022-09-09T07:58:48;8.40;;;6.90;;
57337;SDS011;43173;50.980;18.204;2022-09-09T08:01:16;9.70;;;7.10;;
57337;SDS011;43173;50.980;18.204;2022-09-09T08:04:04;8.20;;;7.50;;
57337;SDS011;43173;50.980;18.204;2022-09-09T08:06:35;9.10;;;5.80;;
57337;SDS011;43173;50.980;18.204;2022-09-09T08:09:03;7.20;;;5.80;;
57337;SDS011;43173;50.980;18.204;2022-09-09T08:11:29;7.00;;;5.20;;
57337;SDS011;43173;50.980;18.204;2022-09-09T08:13:55;6.00;;;5.40;;
57337;SDS011;43173;50.980;18.204;2022-09-09T08:16:22;8.50;;;6.50;;
57337;SDS011;43173;50.980;18.204;2022-09-09T08:18:50;5.90;;;5.40;;
57337;SDS011;43173;50.980;18.204;2022-09-09T08:21:17;7.10;;;6.20;;
57337;SDS011;43173;50.980;18.204;2022-09-09T08:23:45;4.60;;;4.20;;
57337;SDS011;43173;50.980;18.204;2022-09-09T08:26:16;4.20;;;3.90;;
57337;SDS011;43173;50.980;18.204;2022-09-09T08:28:48;7.00;;;4.60;;
57337;SDS011;43173;50.980;18.204;2022-09-09T08:31:16;4.60;;;3.80;;
57337;SDS011;43173;50.980;18.204;2022-09-09T08:33:43;5.80;;;3.90;;
57337;SDS011;43173;50.980;18.204;2022-09-09T08:36:12;3.20;;;2.90;;
57337;SDS011;43173;50.980;18.204;2022-09-09T08:38:41;6.60;;;2.70;;
57337;SDS011;43173;50.980;18.204;2022-09-09T08:41:16;3.20;;;2.90;;
57337;SDS011;43173;50.980;18.204;2022-09-09T08:43:48;3.70;;;2.60;;
57337;SDS011;43173;50.980;18.204;2022-09-09T08:52:31;2.30;;;2.10;;
57337;SDS011;43173;50.980;18.204;2022-09-09T08:57:53;6.50;;;2.50;;
57337;SDS011;43173;50.980;18.204;2022-09-09T09:00:20;2.30;;;2.10;;
57337;SDS011;43173;50.980;18.204;2022-09-09T09:02:48;2.60;;;2.40;;
57337;SDS011;43173;50.980;18.204;2022-09-09T09:08:53;4.60;;;2.90;;
57337;SDS011;43173;50.980;18.204;2022-09-09T09:11:16;3.60;;;2.70;;
57337;SDS011;43173;50.980;18.204;2022-09-09T09:19:16;3.80;;;2.50;;
57337;SDS011;43173;50.980;18.204;2022-09-09T09:21:44;2.30;;;2.10;;
57337;SDS011;43173;50.980;18.204;2022-09-09T09:24:18;3.90;;;2.00;;
57337;SDS011;43173;50.980;18.204;2022-09-09T09:26:46;3.40;;;2.20;;
57337;SDS011;43173;50.980;18.204;2022-09-09T09:29:16;2.40;;;1.90;;
57337;SDS011;43173;50.980;18.204;2022-09-09T09:31:48;1.90;;;1.70;;
57337;SDS011;43173;50.980;18.204;2022-09-09T09:34:20;3.20;;;2.10;;
57337;SDS011;43173;50.980;18.204;2022-09-09T09:36:52;2.40;;;2.20;;
57337;SDS011;43173;50.980;18.204;2022-09-09T09:39:24;2.30;;;1.90;;
57337;SDS011;43173;50.980;18.204;2022-09-09T09:41:51;2.80;;;2.10;;
57337;SDS011;43173;50.980;18.204;2022-09-09T09:44:27;3.20;;;2.20;;
57337;SDS011;43173;50.980;18.204;2022-09-09T09:50:01;3.40;;;2.30;;
57337;SDS011;43173;50.980;18.204;2022-09-09T09:52:28;4.70;;;2.30;;
57337;SDS011;43173;50.980;18.204;2022-09-09T09:54:56;2.70;;;2.00;;
57337;SDS011;43173;50.980;18.204;2022-09-09T09:57:26;2.60;;;2.40;;
57337;SDS011;43173;50.980;18.204;2022-09-09T10:00:03;3.40;;;2.10;;
57337;SDS011;43173;50.980;18.204;2022-09-09T10:02:50;3.30;;;2.20;;
57337;SDS011;43173;50.980;18.204;2022-09-09T10:05:23;2.20;;;2.00;;
57337;SDS011;43173;50.980;18.204;2022-09-09T10:08:04;2.50;;;2.20;;
57337;SDS011;43173;50.980;18.204;2022-09-09T10:10:43;3.20;;;2.10;;
57337;SDS011;43173;50.980;18.204;2022-09-09T10:16:25;2.40;;;2.20;;
57337;SDS011;43173;50.980;18.204;2022-09-09T10:27:32;5.40;;;2.50;;
57337;SDS011;43173;50.980;18.204;2022-09-09T10:32:45;3.10;;;2.30;;
57337;SDS011;43173;50.980;18.204;2022-09-09T10:35:33;2.50;;;2.30;;
57337;SDS011;43173;50.980;18.204;2022-09-09T10:54:13;2.10;;;1.80;;
57337;SDS011;43173;50.980;18.204;2022-09-09T10:56:49;3.20;;;1.90;;
57337;SDS011;43173;50.980;18.204;2022-09-09T10:59:20;2.50;;;1.40;;
57337;SDS011;43173;50.980;18.204;2022-09-09T11:01:59;2.30;;;1.20;;
57337;SDS011;43173;50.980;18.204;2022-09-09T11:04:39;3.10;;;1.60;;
57337;SDS011;43173;50.980;18.204;2022-09-09T11:07:08;4.40;;;1.50;;
57337;SDS011;43173;50.980;18.204;2022-09-09T11:09:38;1.60;;;1.50;;
57337;SDS011;43173;50.980;18.204;2022-09-09T11:12:06;2.00;;;1.30;;
57337;SDS011;43173;50.980;18.204;2022-09-09T11:14:39;2.30;;;1.70;;
57337;SDS011;43173;50.980;18.204;2022-09-09T11:20:02;2.40;;;1.20;;
57337;SDS011;43173;50.980;18.204;2022-09-09T11:28:25;2.80;;;1.30;;
57337;SDS011;43173;50.980;18.204;2022-09-09T11:42:06;2.70;;;1.30;;
57337;SDS011;43173;50.980;18.204;2022-09-09T11:44:33;1.50;;;1.30;;
57337;SDS011;43173;50.980;18.204;2022-09-09T11:46:59;3.00;;;1.40;;
57337;SDS011;43173;50.980;18.204;2022-09-09T11:49:28;1.80;;;1.10;;
57337;SDS011;43173;50.980;18.204;2022-09-09T11:55:28;2.80;;;1.20;;
57337;SDS011;43173;50.980;18.204;2022-09-09T11:57:58;4.40;;;1.20;;
57337;SDS011;43173;50.980;18.204;2022-09-09T12:00:44;1.50;;;1.20;;
57337;SDS011;43173;50.980;18.204;2022-09-09T12:09:06;2.10;;;1.00;;
57337;SDS011;43173;50.980;18.204;2022-09-09T12:11:34;1.90;;;1.10;;
57337;SDS011;43173;50.980;18.204;2022-09-09T12:14:00;5.20;;;1.40;;
57337;SDS011;43173;50.980;18.204;2022-09-09T12:19:14;1.80;;;0.90;;
57337;SDS011;43173;50.980;18.204;2022-09-09T12:21:51;2.00;;;1.10;;
57337;SDS011;43173;50.980;18.204;2022-09-09T12:24:31;4.10;;;1.10;;
57337;SDS011;43173;50.980;18.204;2022-09-09T12:29:57;1.30;;;0.80;;
57337;SDS011;43173;50.980;18.204;2022-09-09T12:32:28;4.00;;;1.00;;
57337;SDS011;43173;50.980;18.204;2022-09-09T12:37:52;3.20;;;1.00;;
57337;SDS011;43173;50.980;18.204;2022-09-09T12:40:23;1.70;;;1.10;;
57337;SDS011;43173;50.980;18.204;2022-09-09T12:42:49;2.70;;;1.10;;
57337;SDS011;43173;50.980;18.204;2022-09-09T12:45:19;1.20;;;0.90;;
57337;SDS011;43173;50.980;18.204;2022-09-09T12:50:38;2.00;;;1.00;;
57337;SDS011;43173;50.980;18.204;2022-09-09T12:53:11;3.30;;;1.10;;
57337;SDS011;43173;50.980;18.204;2022-09-09T12:55:48;0.90;;;0.80;;
57337;SDS011;43173;50.980;18.204;2022-09-09T12:58:16;1.20;;;0.80;;
57337;SDS011;43173;50.980;18.204;2022-09-09T13:00:48;2.10;;;0.90;;
57337;SDS011;43173;50.980;18.204;2022-09-09T13:03:18;1.60;;;0.80;;
57337;SDS011;43173;50.980;18.204;2022-09-09T13:05:46;1.50;;;1.00;;
57337;SDS011;43173;50.980;18.204;2022-09-09T13:08:12;1.30;;;1.00;;
57337;SDS011;43173;50.980;18.204;2022-09-09T13:13:27;1.30;;;1.00;;
57337;SDS011;43173;50.980;18.204;2022-09-09T13:15:56;2.20;;;1.10;;
57337;SDS011;43173;50.980;18.204;2022-09-09T13:18:24;3.30;;;1.00;;
57337;SDS011;43173;50.980;18.204;2022-09-09T13:20:58;2.70;;;1.20;;
57337;SDS011;43173;50.980;18.204;2022-09-09T13:23:29;3.00;;;1.10;;
57337;SDS011;43173;50.980;18.204;2022-09-09T13:25:57;1.20;;;0.90;;
57337;SDS011;43173;50.980;18.204;2022-09-09T13:28:25;1.70;;;1.00;;
57337;SDS011;43173;50.980;18.204;2022-09-09T13:33:58;3.40;;;1.10;;
57337;SDS011;43173;50.980;18.204;2022-09-09T13:36:29;1.70;;;0.90;;
57337;SDS011;43173;50.980;18.204;2022-09-09T13:38:56;1.50;;;0.80;;
57337;SDS011;43173;50.980;18.204;2022-09-09T13:44:04;1.20;;;0.90;;
57337;SDS011;43173;50.980;18.204;2022-09-09T13:46:36;1.10;;;0.60;;
57337;SDS011;43173;50.980;18.204;2022-09-09T13:51:39;2.20;;;0.80;;
57337;SDS011;43173;50.980;18.204;2022-09-09T13:54:11;2.70;;;0.80;;
57337;SDS011;43173;50.980;18.204;2022-09-09T13:59:05;2.20;;;0.80;;
57337;SDS011;43173;50.980;18.204;2022-09-09T14:01:31;2.80;;;1.00;;
57337;SDS011;43173;50.980;18.204;2022-09-09T14:03:59;2.50;;;0.70;;
57337;SDS011;43173;50.980;18.204;2022-09-09T14:06:25;2.50;;;0.70;;
57337;SDS011;43173;50.980;18.204;2022-09-09T14:08:51;1.80;;;0.60;;
57337;SDS011;43173;50.980;18.204;2022-09-09T14:11:17;1.80;;;0.80;;
57337;SDS011;43173;50.980;18.204;2022-09-09T14:13:44;2.00;;;0.90;;
57337;SDS011;43173;50.980;18.204;2022-09-09T14:16:09;2.10;;;0.70;;
57337;SDS011;43173;50.980;18.204;2022-09-09T14:18:35;1.30;;;0.80;;
57337;SDS011;43173;50.980;18.204;2022-09-09T14:21:03;1.70;;;1.10;;
57337;SDS011;43173;50.980;18.204;2022-09-09T14:23:28;2.10;;;0.90;;
57337;SDS011;43173;50.980;18.204;2022-09-09T14:25:54;1.60;;;0.70;;
57337;SDS011;43173;50.980;18.204;2022-09-09T14:28:20;2.10;;;1.00;;
57337;SDS011;43173;50.980;18.204;2022-09-09T14:30:46;3.00;;;0.80;;
57337;SDS011;43173;50.980;18.204;2022-09-09T14:33:13;1.90;;;0.90;;
57337;SDS011;43173;50.980;18.204;2022-09-09T14:35:39;1.80;;;0.80;;
57337;SDS011;43173;50.980;18.204;2022-09-09T14:38:06;2.50;;;0.90;;
57337;SDS011;43173;50.980;18.204;2022-09-09T14:40:34;2.30;;;0.70;;
57337;SDS011;43173;50.980;18.204;2022-09-09T14:43:01;2.30;;;0.90;;
57337;SDS011;43173;50.980;18.204;2022-09-09T14:45:27;1.40;;;0.80;;
57337;SDS011;43173;50.980;18.204;2022-09-09T14:47:53;3.20;;;0.90;;
57337;SDS011;43173;50.980;18.204;2022-09-09T14:50:19;1.20;;;0.80;;
57337;SDS011;43173;50.980;18.204;2022-09-09T14:52:46;1.50;;;0.90;;
57337;SDS011;43173;50.980;18.204;2022-09-09T14:55:12;2.60;;;0.90;;
57337;SDS011;43173;50.980;18.204;2022-09-09T14:57:40;1.80;;;0.90;;
57337;SDS011;43173;50.980;18.204;2022-09-09T15:00:07;1.20;;;0.70;;
57337;SDS011;43173;50.980;18.204;2022-09-09T15:02:34;2.40;;;0.80;;
57337;SDS011;43173;50.980;18.204;2022-09-09T15:05:00;2.00;;;0.80;;
57337;SDS011;43173;50.980;18.204;2022-09-09T15:07:27;2.00;;;0.90;;
57337;SDS011;43173;50.980;18.204;2022-09-09T15:09:54;1.50;;;1.20;;
57337;SDS011;43173;50.980;18.204;2022-09-09T15:12:20;2.40;;;0.90;;
57337;SDS011;43173;50.980;18.204;2022-09-09T15:14:45;1.70;;;0.90;;
57337;SDS011;43173;50.980;18.204;2022-09-09T15:17:12;1.30;;;1.10;;
57337;SDS011;43173;50.980;18.204;2022-09-09T15:19:38;0.90;;;0.70;;
57337;SDS011;43173;50.980;18.204;2022-09-09T15:22:05;2.60;;;1.00;;
57337;SDS011;43173;50.980;18.204;2022-09-09T15:24:34;0.90;;;0.80;;
57337;SDS011;43173;50.980;18.204;2022-09-09T15:27:00;2.50;;;0.90;;
57337;SDS011;43173;50.980;18.204;2022-09-09T15:29:27;2.10;;;1.00;;
57337;SDS011;43173;50.980;18.204;2022-09-09T15:31:55;1.30;;;1.10;;
57337;SDS011;43173;50.980;18.204;2022-09-09T15:34:21;2.10;;;1.00;;
57337;SDS011;43173;50.980;18.204;2022-09-09T15:36:47;1.20;;;0.80;;
57337;SDS011;43173;50.980;18.204;2022-09-09T15:39:16;1.70;;;0.90;;
57337;SDS011;43173;50.980;18.204;2022-09-09T15:41:46;3.40;;;1.00;;
57337;SDS011;43173;50.980;18.204;2022-09-09T15:46:40;3.50;;;1.00;;
57337;SDS011;43173;50.980;18.204;2022-09-09T15:51:41;2.40;;;1.30;;
57337;SDS011;43173;50.980;18.204;2022-09-09T15:54:08;4.70;;;1.20;;
57337;SDS011;43173;50.980;18.204;2022-09-09T15:56:34;2.70;;;1.10;;
57337;SDS011;43173;50.980;18.204;2022-09-09T15:59:00;4.10;;;1.80;;
57337;SDS011;43173;50.980;18.204;2022-09-09T16:01:28;2.00;;;1.80;;
57337;SDS011;43173;50.980;18.204;2022-09-09T16:03:55;4.40;;;1.90;;
57337;SDS011;43173;50.980;18.204;2022-09-09T16:06:23;2.60;;;2.00;;
57337;SDS011;43173;50.980;18.204;2022-09-09T16:08:50;2.40;;;1.60;;
57337;SDS011;43173;50.980;18.204;2022-09-09T16:13:45;3.50;;;2.30;;
57337;SDS011;43173;50.980;18.204;2022-09-09T16:16:12;3.60;;;2.70;;
57337;SDS011;43173;50.980;18.204;2022-09-09T16:18:40;3.50;;;2.80;;
57337;SDS011;43173;50.980;18.204;2022-09-09T16:21:20;6.50;;;2.70;;
57337;SDS011;43173;50.980;18.204;2022-09-09T16:23:57;4.10;;;2.50;;
57337;SDS011;43173;50.980;18.204;2022-09-09T16:26:24;7.80;;;3.20;;
57337;SDS011;43173;50.980;18.204;2022-09-09T16:28:50;4.80;;;2.70;;
57337;SDS011;43173;50.980;18.204;2022-09-09T16:31:17;3.30;;;2.40;;
57337;SDS011;43173;50.980;18.204;2022-09-09T16:33:45;5.20;;;2.70;;
57337;SDS011;43173;50.980;18.204;2022-09-09T16:36:12;4.90;;;2.20;;
57337;SDS011;43173;50.980;18.204;2022-09-09T16:38:40;3.10;;;2.60;;
57337;SDS011;43173;50.980;18.204;2022-09-09T16:41:08;3.70;;;2.50;;
57337;SDS011;43173;50.980;18.204;2022-09-09T16:43:35;5.30;;;2.40;;
57337;SDS011;43173;50.980;18.204;2022-09-09T16:46:01;4.20;;;2.30;;
57337;SDS011;43173;50.980;18.204;2022-09-09T16:48:31;6.10;;;2.30;;
57337;SDS011;43173;50.980;18.204;2022-09-09T16:51:22;4.00;;;2.70;;
57337;SDS011;43173;50.980;18.204;2022-09-09T16:53:50;6.70;;;3.20;;
57337;SDS011;43173;50.980;18.204;2022-09-09T16:56:17;6.20;;;3.60;;
57337;SDS011;43173;50.980;18.204;2022-09-09T16:58:49;5.90;;;3.40;;
57337;SDS011;43173;50.980;18.204;2022-09-09T17:01:16;5.20;;;3.50;;
57337;SDS011;43173;50.980;18.204;2022-09-09T17:03:41;5.30;;;3.40;;
57337;SDS011;43173;50.980;18.204;2022-09-09T17:06:11;5.60;;;2.90;;
57337;SDS011;43173;50.980;18.204;2022-09-09T17:08:40;7.00;;;3.30;;
57337;SDS011;43173;50.980;18.204;2022-09-09T17:13:52;6.60;;;3.30;;
57337;SDS011;43173;50.980;18.204;2022-09-09T17:16:20;5.00;;;3.10;;
57337;SDS011;43173;50.980;18.204;2022-09-09T17:18:47;6.70;;;3.40;;
57337;SDS011;43173;50.980;18.204;2022-09-09T17:21:14;5.10;;;3.40;;
57337;SDS011;43173;50.980;18.204;2022-09-09T17:23:42;4.60;;;3.10;;